Time;durP1;ratioP1;P1;durP2;ratioP2;P2;SDS_P1;SDS_P2;PMS_P1;PMS_P2;Temp;Humidity;BMP_temperature;BMP_pressure;BME280_temperature;BME280_humidity;BME280_pressure;Samples;Min_cycle;Max_cycle;Signal;HPM_P1;HPM_P2
2023/08/15 00:01:04;;;;;;;12.30;6.50;;;;;;;18.00;100.00;100867.72;5016701;28;20487;-76
2023/08/15 00:03:30;;;;;;;13.47;6.17;;;;;;;17.92;100.00;100864.19;5028190;28;20451;-75
2023/08/15 00:05:56;;;;;;;11.35;6.43;;;;;;;17.96;100.00;100867.31;5027045;28;20029;-76
2023/08/15 00:08:21;;;;;;;9.90;6.17;;;;;;;17.88;100.00;100860.25;5036516;28;20760;-76
2023/08/15 00:10:47;;;;;;;10.37;6.10;;;;;;;17.90;100.00;100857.34;5032998;28;20029;-75
2023/08/15 00:13:12;;;;;;;9.40;5.95;;;;;;;17.87;100.00;100868.56;5019094;28;20061;-74
2023/08/15 00:15:37;;;;;;;8.27;5.87;;;;;;;17.85;100.00;100865.25;5022200;28;20039;-74
2023/08/15 00:18:03;;;;;;;9.57;5.77;;;;;;;17.85;100.00;100868.75;5025302;28;20091;-76
2023/08/15 00:20:28;;;;;;;8.68;5.97;;;;;;;17.82;100.00;100866.50;4986101;28;20033;-75
2023/08/15 00:22:54;;;;;;;10.73;7.57;;;;;;;17.82;100.00;100865.66;5019024;28;20038;-75
2023/08/15 00:25:19;;;;;;;9.43;6.73;;;;;;;17.85;100.00;100860.66;5000808;28;20406;-75
2023/08/15 00:27:45;;;;;;;8.03;5.77;;;;;;;17.84;100.00;100856.31;5002937;28;20045;-75
2023/08/15 00:30:10;;;;;;;8.30;5.87;;;;;;;17.83;100.00;100867.31;5017962;28;20272;-75
2023/08/15 00:32:36;;;;;;;12.32;6.70;;;;;;;17.84;100.00;100863.56;4990526;28;20045;-76
2023/08/15 00:35:05;;;;;;;9.10;6.10;;;;;;;17.86;100.00;100861.50;5021223;28;20294;-76
2023/08/15 00:37:31;;;;;;;11.40;6.78;;;;;;;17.87;100.00;100869.41;4977650;28;20050;-76
2023/08/15 00:39:57;;;;;;;13.80;8.07;;;;;;;17.75;100.00;100860.22;5022037;28;20037;-74
2023/08/15 00:42:24;;;;;;;21.23;13.93;;;;;;;17.76;100.00;100866.44;4996828;28;20492;-75
2023/08/15 00:44:49;;;;;;;13.93;10.02;;;;;;;17.72;100.00;100869.56;5002074;28;20033;-76
2023/08/15 00:47:15;;;;;;;17.03;11.80;;;;;;;17.66;100.00;100862.28;4984842;28;20034;-76
2023/08/15 00:49:44;;;;;;;19.42;10.38;;;;;;;17.63;100.00;100862.72;4983716;28;20172;-76
2023/08/15 00:52:13;;;;;;;13.40;8.60;;;;;;;17.58;100.00;100854.38;4995801;28;20034;-73
2023/08/15 00:54:43;;;;;;;11.07;6.53;;;;;;;17.66;100.00;100866.84;4998945;28;20029;-76
2023/08/15 00:57:10;;;;;;;10.95;7.15;;;;;;;17.64;100.00;100860.84;5013217;28;20034;-75
2023/08/15 00:59:36;;;;;;;12.38;7.22;;;;;;;17.58;100.00;100862.47;4987971;28;20049;-75
2023/08/15 01:02:02;;;;;;;12.25;7.50;;;;;;;17.49;100.00;100855.63;4992796;28;20110;-75
2023/08/15 01:04:28;;;;;;;9.15;6.40;;;;;;;17.41;100.00;100842.31;5009144;28;20484;-75
2023/08/15 01:06:54;;;;;;;13.98;7.60;;;;;;;17.38;100.00;100848.97;5008690;28;20033;-75
2023/08/15 01:09:19;;;;;;;15.23;7.57;;;;;;;17.38;100.00;100848.13;4998560;28;20370;-76
2023/08/15 01:11:59;;;;;;;15.75;7.57;;;;;;;17.25;100.00;100849.75;4990543;28;20057;-75
2023/08/15 01:14:32;;;;;;;15.40;7.28;;;;;;;17.25;100.00;100848.91;4995551;28;20055;-75
2023/08/15 01:16:59;;;;;;;12.27;8.00;;;;;;;17.25;100.00;100854.31;5008420;28;20124;-76
2023/08/15 01:19:46;;;;;;;10.93;7.25;;;;;;;17.24;100.00;100850.78;5004643;28;20025;-76
2023/08/15 01:22:20;;;;;;;10.32;7.78;;;;;;;17.23;100.00;100853.69;5021732;28;20130;-74
2023/08/15 01:24:46;;;;;;;13.15;7.57;;;;;;;17.20;100.00;100857.63;5021482;28;20033;-76
2023/08/15 01:27:12;;;;;;;10.80;7.47;;;;;;;17.18;100.00;100848.91;5021809;28;20013;-76
2023/08/15 01:29:37;;;;;;;11.02;7.68;;;;;;;17.07;100.00;100834.16;5025602;28;20044;-74
2023/08/15 01:32:19;;;;;;;11.27;6.87;;;;;;;17.14;100.00;100847.66;5026051;28;20072;-76
2023/08/15 01:35:15;;;;;;;11.57;7.50;;;;;;;17.12;100.00;100844.34;5000716;28;20037;-75
2023/08/15 01:37:44;;;;;;;17.63;7.32;;;;;;;17.13;100.00;100837.06;5007911;28;20042;-76
2023/08/15 01:40:16;;;;;;;16.15;8.88;;;;;;;17.13;100.00;100837.06;5026089;28;20024;-76
2023/08/15 01:42:42;;;;;;;14.10;8.25;;;;;;;17.11;100.00;100858.00;5008479;28;20033;-75
2023/08/15 01:45:09;;;;;;;10.88;7.13;;;;;;;17.10;100.00;100854.50;4991660;28;20036;-74
2023/08/15 01:47:34;;;;;;;10.02;7.40;;;;;;;17.09;100.00;100844.72;4997539;28;20083;-76
2023/08/15 01:50:00;;;;;;;14.15;8.50;;;;;;;17.09;100.00;100852.81;5008418;28;20025;-76
2023/08/15 01:52:25;;;;;;;16.20;8.63;;;;;;;17.04;100.00;100852.59;4992242;28;20048;-74
2023/08/15 01:54:51;;;;;;;15.10;7.57;;;;;;;17.01;100.00;100859.22;5025884;28;20069;-75
2023/08/15 01:57:16;;;;;;;15.20;8.60;;;;;;;16.94;100.00;100838.66;5025748;28;20044;-75
2023/08/15 01:59:43;;;;;;;8.57;6.60;;;;;;;16.93;100.00;100845.94;4998250;28;20039;-72
2023/08/15 02:02:10;;;;;;;17.15;7.85;;;;;;;16.92;100.00;100846.13;5007855;28;20524;-73
2023/08/15 02:04:35;;;;;;;;;;;;;;;16.93;100.00;100842.38;4989487;28;20029;-74
2023/08/15 02:07:00;;;;;;;;;;;;;;;16.90;100.00;100824.75;4996989;28;19913;-76
2023/08/15 02:09:26;;;;;;;13.17;7.60;;;;;;;16.85;100.00;100822.66;5005550;28;20587;-75
2023/08/15 02:11:52;;;;;;;8.95;7.13;;;;;;;16.82;100.00;100833.84;4997336;28;20076;-76
2023/08/15 02:14:17;;;;;;;;;;;;;;;16.88;100.00;100835.75;5020895;28;20033;-74
2023/08/15 02:16:43;;;;;;;10.73;6.65;;;;;;;16.83;100.00;100823.91;4997546;28;19921;-75
2023/08/15 02:19:08;;;;;;;11.10;7.20;;;;;;;16.79;100.00;100828.88;5005491;28;20030;-76
2023/08/15 02:21:33;;;;;;;11.47;8.13;;;;;;;16.77;100.00;100817.44;5007846;28;20041;-75
2023/08/15 02:23:59;;;;;;;9.60;7.13;;;;;;;16.76;100.00;100821.13;4996977;28;20026;-76
2023/08/15 02:26:24;;;;;;;16.03;7.73;;;;;;;16.73;100.00;100810.75;5007665;28;20033;-76
2023/08/15 02:28:49;;;;;;;11.43;7.17;;;;;;;16.75;100.00;100814.09;5003728;28;20033;-75
2023/08/15 02:31:15;;;;;;;12.23;8.10;;;;;;;16.75;100.00;100806.00;5020518;28;20058;-75
2023/08/15 02:33:40;;;;;;;16.17;7.77;;;;;;;16.74;100.00;100815.13;5000049;28;20029;-76
2023/08/15 02:36:06;;;;;;;9.77;7.57;;;;;;;16.68;100.00;100794.38;5023960;28;20034;-73
2023/08/15 02:38:32;;;;;;;9.70;6.93;;;;;;;16.66;100.00;100791.88;4999693;28;20837;-72
2023/08/15 02:40:58;;;;;;;11.07;7.15;;;;;;;16.69;100.00;100790.63;5006918;28;20071;-74
2023/08/15 02:43:23;;;;;;;11.35;7.60;;;;;;;16.67;100.00;100788.16;5021774;28;20049;-73
2023/08/15 02:45:49;;;;;;;12.10;8.33;;;;;;;16.65;100.00;100781.31;4991044;28;20029;-74
2023/08/15 02:48:14;;;;;;;18.90;7.77;;;;;;;16.61;100.00;100780.03;5002511;28;20280;-73
2023/08/15 02:50:40;;;;;;;11.97;8.30;;;;;;;16.59;100.00;100777.53;4991183;28;20116;-74
2023/08/15 02:53:05;;;;;;;13.53;9.43;;;;;;;16.58;100.00;100783.97;4999377;28;20389;-74
2023/08/15 02:55:32;;;;;;;13.53;8.23;;;;;;;16.51;100.00;100799.28;4999419;28;20400;-73
2023/08/15 02:57:57;;;;;;;13.05;8.25;;;;;;;16.58;100.00;100789.34;4985178;28;20079;-73
2023/08/15 03:00:23;;;;;;;13.40;9.37;;;;;;;16.56;100.00;100779.81;4988173;28;20033;-76
2023/08/15 03:02:48;;;;;;;9.97;8.27;;;;;;;16.52;100.00;100776.69;5007461;28;20495;-75
2023/08/15 03:05:14;;;;;;;15.23;8.83;;;;;;;16.44;100.00;100758.81;5002314;28;20037;-75
2023/08/15 03:07:39;;;;;;;13.67;8.20;;;;;;;16.45;100.00;100762.34;5007252;28;20036;-76
2023/08/15 03:10:05;;;;;;;16.77;8.43;;;;;;;16.44;100.00;100771.47;5023479;28;20045;-76
2023/08/15 03:12:30;;;;;;;13.70;8.32;;;;;;;16.44;100.00;100766.09;5024923;28;20087;-75
2023/08/15 03:14:57;;;;;;;14.10;8.80;;;;;;;16.43;100.00;100759.00;4990429;28;20045;-76
2023/08/15 03:17:23;;;;;;;11.43;8.50;;;;;;;16.31;100.00;100739.91;4986970;28;20025;-76
2023/08/15 03:19:49;;;;;;;9.77;7.95;;;;;;;16.40;100.00;100765.63;4987033;28;20034;-76
2023/08/15 03:22:14;;;;;;;15.70;8.53;;;;;;;16.45;100.00;100773.13;5007113;28;20656;-76
2023/08/15 03:24:40;;;;;;;14.07;9.00;;;;;;;16.41;100.00;100763.75;4987561;28;20038;-76
2023/08/15 03:27:05;;;;;;;16.83;11.40;;;;;;;16.38;100.00;100766.88;5021241;28;20493;-76
2023/08/15 03:29:31;;;;;;;16.80;10.77;;;;;;;16.38;100.00;100777.66;4999087;28;20037;-75
2023/08/15 03:31:58;;;;;;;18.83;10.53;;;;;;;16.34;100.00;100777.22;4998894;28;20835;-75
2023/08/15 03:34:27;;;;;;;15.90;8.88;;;;;;;16.34;100.00;100784.47;4991291;28;20065;-74
2023/08/15 03:36:53;;;;;;;16.33;8.85;;;;;;;16.28;100.00;100783.41;5006977;28;20107;-75
2023/08/15 03:39:18;;;;;;;11.80;8.67;;;;;;;16.27;100.00;100783.59;4998668;28;20476;-76
2023/08/15 03:41:44;;;;;;;12.10;9.73;;;;;;;16.30;100.00;100791.31;5000743;28;20065;-75
2023/08/15 03:44:10;;;;;;;14.40;9.52;;;;;;;16.29;100.00;100793.13;5022852;28;20041;-76
2023/08/15 03:46:35;;;;;;;12.43;9.50;;;;;;;16.29;100.00;100790.44;4997147;28;20029;-76
2023/08/15 03:49:01;;;;;;;17.23;8.77;;;;;;;16.32;100.00;100790.06;5006616;28;20042;-75
2023/08/15 03:51:26;;;;;;;12.52;10.02;;;;;;;16.28;100.00;100788.78;4985984;28;20034;-76
2023/08/15 03:53:53;;;;;;;;;;;;;;;16.41;100.00;100806.88;5024390;28;20034;-75
2023/08/15 03:56:18;;;;;;;16.27;9.48;;;;;;;16.39;100.00;100800.88;5026516;28;20565;-76
2023/08/15 03:58:44;;;;;;;12.23;9.37;;;;;;;16.36;100.00;100806.66;5003950;28;20033;-76
2023/08/15 04:01:09;;;;;;;19.20;11.47;;;;;;;16.38;100.00;100812.69;4999158;28;20033;-75
2023/08/15 04:03:35;;;;;;;22.17;11.73;;;;;;;16.42;100.00;100816.66;5003522;28;20037;-76
2023/08/15 04:06:00;;;;;;;11.00;9.07;;;;;;;16.44;100.00;100814.59;5004343;28;20025;-76
2023/08/15 04:08:26;;;;;;;20.90;10.03;;;;;;;16.44;100.00;100812.72;5027006;28;20040;-76
2023/08/15 04:10:54;;;;;;;16.80;9.32;;;;;;;16.45;100.00;100814.38;5007124;28;20111;-75
2023/08/15 04:13:22;;;;;;;14.32;10.77;;;;;;;16.51;100.00;100817.31;4994317;28;20048;-75
2023/08/15 04:15:48;;;;;;;15.10;10.50;;;;;;;16.58;100.00;100816.31;4994264;28;20030;-77
2023/08/15 04:18:14;;;;;;;16.00;9.20;;;;;;;16.70;100.00;100823.84;4993243;28;20124;-76
2023/08/15 04:20:41;;;;;;;15.98;10.38;;;;;;;16.78;100.00;100821.78;5024503;28;20025;-74
2023/08/15 04:23:07;;;;;;;10.82;8.45;;;;;;;16.88;100.00;100818.75;5009786;28;20073;-74
2023/08/15 04:25:34;;;;;;;16.55;12.90;;;;;;;17.04;100.00;100833.72;4987227;28;20087;-76
2023/08/15 04:28:00;;;;;;;14.60;11.38;;;;;;;17.13;100.00;100828.97;5009748;28;20041;-75
2023/08/15 04:30:26;;;;;;;16.35;11.68;;;;;;;17.19;100.00;100826.31;5005807;28;20380;-75
2023/08/15 04:32:51;;;;;;;17.85;10.88;;;;;;;17.33;100.00;100818.25;4984924;28;20309;-76
2023/08/15 04:35:16;;;;;;;19.70;12.20;;;;;;;17.49;100.00;100823.25;5006598;28;20041;-75
2023/08/15 04:37:42;;;;;;;14.88;9.52;;;;;;;17.59;100.00;100817.44;5006466;28;20040;-74
2023/08/15 04:40:15;;;;;;;;;;;;;;;17.68;100.00;100816.19;5001617;28;20034;-75
2023/08/15 04:42:41;;;;;;;13.52;10.55;;;;;;;17.76;100.00;100807.03;5026403;28;20008;-76
2023/08/15 04:45:08;;;;;;;20.70;11.63;;;;;;;17.83;100.00;100811.44;5018957;28;20129;-76
2023/08/15 04:47:34;;;;;;;13.90;9.95;;;;;;;17.93;100.00;100821.81;4988372;28;20091;-76
2023/08/15 04:49:59;;;;;;;16.40;10.75;;;;;;;18.02;100.00;100817.03;5017689;28;20038;-76
2023/08/15 04:52:26;;;;;;;18.92;12.30;;;;;;;18.08;100.00;100806.22;4993898;28;20746;-75
2023/08/15 04:54:52;;;;;;;14.70;9.63;;;;;;;18.13;100.00;100795.59;4989164;28;20083;-74
2023/08/15 04:57:17;;;;;;;14.57;9.70;;;;;;;18.20;100.00;100800.16;5010515;28;20033;-74
2023/08/15 04:59:42;;;;;;;19.80;9.77;;;;;;;18.32;100.00;100793.88;4980369;28;20060;-76
2023/08/15 05:02:08;;;;;;;17.20;9.27;;;;;;;18.54;100.00;100807.13;5006067;28;20045;-76
2023/08/15 05:04:33;;;;;;;13.50;8.87;;;;;;;18.51;100.00;100794.03;4981581;28;20037;-76
2023/08/15 05:07:00;;;;;;;13.80;9.50;;;;;;;18.55;100.00;100798.81;5002608;28;20529;-75
2023/08/15 05:09:30;;;;;;;11.52;9.02;;;;;;;18.50;100.00;100782.41;5009388;28;20041;-75
2023/08/15 05:11:55;;;;;;;12.25;9.10;;;;;;;18.67;100.00;100784.63;5017988;28;20093;-76
2023/08/15 05:14:21;;;;;;;12.55;8.13;;;;;;;19.06;100.00;100799.84;4992659;28;20473;-76
2023/08/15 05:16:47;;;;;;;11.93;8.20;;;;;;;19.45;100.00;100789.78;5013682;28;20037;-74
2023/08/15 05:19:12;;;;;;;12.18;8.02;;;;;;;19.39;100.00;100777.97;4992715;28;20025;-74
2023/08/15 05:21:40;;;;;;;16.05;10.52;;;;;;;19.23;100.00;100762.25;5017855;28;20034;-75
2023/08/15 05:24:06;;;;;;;14.98;8.45;;;;;;;19.22;100.00;100782.22;4994763;28;20034;-76
2023/08/15 05:26:32;;;;;;;20.27;9.60;;;;;;;19.26;100.00;100791.59;5017124;28;20602;-74
2023/08/15 05:28:57;;;;;;;12.20;7.97;;;;;;;19.16;100.00;100775.00;4984790;28;20045;-75
2023/08/15 05:31:23;;;;;;;14.85;9.23;;;;;;;19.15;100.00;100767.91;4986133;28;20061;-76
2023/08/15 05:33:48;;;;;;;12.50;8.20;;;;;;;19.39;100.00;100787.97;5015641;28;20037;-75
2023/08/15 05:36:17;;;;;;;14.70;7.70;;;;;;;19.50;100.00;100789.13;5000789;28;20040;-76
2023/08/15 05:38:42;;;;;;;14.50;8.32;;;;;;;19.50;100.00;100789.97;4989080;28;20043;-75
2023/08/15 05:41:07;;;;;;;11.53;7.20;;;;;;;19.51;100.00;100783.50;4998691;28;20411;-76
2023/08/15 05:43:33;;;;;;;13.77;8.27;;;;;;;19.55;100.00;100773.03;5019365;28;20041;-75
2023/08/15 05:45:58;;;;;;;11.13;8.50;;;;;;;19.80;100.00;100787.44;4984083;28;20037;-73
2023/08/15 05:48:24;;;;;;;15.93;8.90;;;;;;;20.07;100.00;100795.31;4999348;28;20053;-75
2023/08/15 05:50:49;;;;;;;12.87;7.70;;;;;;;20.96;100.00;100814.75;5018158;28;20112;-75
2023/08/15 05:53:14;;;;;;;11.97;7.00;;;;;;;22.18;100.00;100780.81;4977848;28;20029;-76
2023/08/15 05:55:42;;;;;;;11.00;7.03;;;;;;;23.27;100.00;100716.50;5002216;28;20029;-76
2023/08/15 05:58:08;;;;;;;13.15;6.80;;;;;;;23.90;100.00;100610.91;5005025;28;20033;-76
2023/08/15 06:00:34;;;;;;;12.85;6.68;;;;;;;22.75;100.00;100568.66;5025800;28;20108;-76
2023/08/15 06:03:00;;;;;;;10.55;7.10;;;;;;;22.60;100.00;100575.75;4985505;28;20034;-74
2023/08/15 06:05:29;;;;;;;17.35;8.68;;;;;;;22.15;100.00;100561.06;5020674;28;20029;-74
2023/08/15 06:07:55;;;;;;;13.15;7.25;;;;;;;21.50;100.00;100621.97;4989252;28;20456;-74
2023/08/15 06:10:20;;;;;;;12.83;7.50;;;;;;;21.28;100.00;100695.00;5010171;28;20072;-74
2023/08/15 06:12:45;;;;;;;13.03;7.63;;;;;;;21.27;100.00;100723.25;4978997;28;20021;-74
2023/08/15 06:15:11;;;;;;;10.20;7.23;;;;;;;21.38;100.00;100743.34;5020430;28;20033;-74
2023/08/15 06:17:36;;;;;;;17.47;9.00;;;;;;;21.49;100.00;100720.81;5024806;28;20389;-74
2023/08/15 06:20:02;;;;;;;12.37;8.10;;;;;;;21.56;100.00;100743.25;5022120;28;20041;-72
2023/08/15 06:22:27;;;;;;;10.50;7.22;;;;;;;22.23;100.00;100756.47;5004074;28;20288;-72
2023/08/15 06:24:53;;;;;;;19.27;7.73;;;;;;;22.64;100.00;100685.72;5018220;28;20451;-74
2023/08/15 06:27:18;;;;;;;11.75;7.43;;;;;;;22.54;100.00;100664.59;5019481;28;20021;-73
2023/08/15 06:29:43;;;;;;;11.17;7.43;;;;;;;22.73;100.00;100624.41;4980724;28;20096;-74
2023/08/15 06:32:24;;;;;;;8.23;7.20;;;;;;;22.93;100.00;100589.34;5024210;28;20040;-74
2023/08/15 06:34:49;;;;;;;12.48;7.45;;;;;;;22.84;100.00;100565.53;5011937;28;20056;-74
2023/08/15 06:37:14;;;;;;;16.73;8.47;;;;;;;22.42;100.00;100576.78;5013533;28;20473;-74
2023/08/15 06:39:40;;;;;;;13.23;8.20;;;;;;;22.68;100.00;100652.34;4993073;28;20480;-74
2023/08/15 06:42:05;;;;;;;15.43;9.40;;;;;;;23.33;100.00;100580.16;5025056;28;20396;-74
2023/08/15 06:44:31;;;;;;;11.02;6.88;;;;;;;23.27;100.00;100528.59;4985766;28;20037;-74
2023/08/15 06:46:56;;;;;;;9.02;5.97;;;;;;;23.54;100.00;100545.84;5017433;28;20018;-73
2023/08/15 06:49:21;;;;;;;11.37;5.83;;;;;;;23.42;100.00;100542.44;5002630;28;20075;-72
2023/08/15 06:51:47;;;;;;;11.73;7.37;;;;;;;23.59;100.00;100507.75;5023120;28;20095;-72
2023/08/15 06:54:12;;;;;;;13.70;7.67;;;;;;;23.10;100.00;100556.69;5012094;28;20037;-74
2023/08/15 06:56:37;;;;;;;12.40;6.70;;;;;;;23.83;100.00;100619.25;5003344;28;20036;-74
2023/08/15 06:59:03;;;;;;;12.93;6.47;;;;;;;24.35;100.00;100530.63;4997649;28;20133;-73
2023/08/15 07:01:28;;;;;;;9.67;5.97;;;;;;;25.16;100.00;100453.94;5007624;28;20374;-73
2023/08/15 07:03:53;;;;;;;9.40;5.80;;;;;;;25.45;100.00;100418.00;5003341;28;20146;-74
2023/08/15 07:06:19;;;;;;;11.27;6.53;;;;;;;26.03;100.00;100314.72;5020325;28;20029;-74
2023/08/15 07:08:45;;;;;;;9.02;5.20;;;;;;;25.95;100.00;100257.88;5014211;28;20049;-73
2023/08/15 07:11:11;;;;;;;13.18;7.30;;;;;;;24.70;100.00;100188.97;5006078;28;20033;-73
2023/08/15 07:13:36;;;;;;;10.73;5.90;;;;;;;23.89;100.00;100353.81;5012078;28;20030;-73
2023/08/15 07:16:01;;;;;;;10.93;6.03;;;;;;;23.65;100.00;100442.41;5010830;28;20982;-72
2023/08/15 07:18:27;;;;;;;13.27;7.17;;;;;;;23.20;100.00;100498.00;4996608;28;20037;-73
2023/08/15 07:20:52;;;;;;;13.47;7.07;;;;;;;23.06;100.00;100603.72;5016899;28;20280;-72
2023/08/15 07:23:18;;;;;;;9.43;5.73;;;;;;;24.05;100.00;100656.63;5017134;28;20036;-74
2023/08/15 07:25:43;;;;;;;17.27;5.93;;;;;;;24.28;100.00;100487.22;4979263;28;20033;-74
2023/08/15 07:28:09;;;;;;;8.85;5.32;;;;;;;24.08;100.00;100508.84;4990023;28;20038;-74
2023/08/15 07:30:34;;;;;;;12.80;6.88;;;;;;;24.32;100.00;100510.16;5025141;28;20400;-73
2023/08/15 07:33:00;;;;;;;10.90;5.90;;;;;;;24.43;100.00;100412.84;5020713;28;20037;-74
2023/08/15 07:35:25;;;;;;;13.77;6.17;;;;;;;24.48;100.00;100483.03;4990553;28;20099;-74
2023/08/15 07:37:50;;;;;;;12.30;6.83;;;;;;;25.30;100.00;100394.19;4995141;28;20284;-74
2023/08/15 07:40:21;;;;;;;10.00;5.73;;;;;;;25.12;100.00;100305.34;5028397;28;20029;-74
2023/08/15 07:42:49;;;;;;;13.77;6.22;;;;;;;24.48;100.00;100349.34;5020502;28;20034;-74
2023/08/15 07:45:16;;;;;;;10.60;5.75;;;;;;;24.84;100.00;100462.25;5024449;28;20396;-73
2023/08/15 07:47:41;;;;;;;9.82;5.72;;;;;;;24.73;100.00;100460.56;5023178;28;20658;-74
2023/08/15 07:50:18;;;;;;;8.53;5.30;;;;;;;24.81;100.00;100441.75;4979168;28;20061;-73
2023/08/15 07:52:47;;;;;;;7.97;5.60;;;;;;;24.50;100.00;100459.03;4992730;28;20060;-74
2023/08/15 07:55:12;;;;;;;9.50;5.65;;;;;;;24.09;100.00;100603.19;5009325;28;20056;-74
2023/08/15 07:57:38;;;;;;;12.27;7.07;;;;;;;24.21;100.00;100617.53;5012039;28;20037;-74
2023/08/15 08:00:04;;;;;;;12.68;5.97;;;;;;;24.14;100.00;100623.19;5000342;22;20050;-72
2023/08/15 08:02:37;;;;;;;12.48;6.40;;;;;;;24.04;100.00;100600.44;5018698;28;20049;-72
2023/08/15 08:05:06;;;;;;;12.80;6.47;;;;;;;23.90;100.00;100633.53;5016993;28;20041;-72
2023/08/15 08:07:32;;;;;;;11.98;5.55;;;;;;;23.73;100.00;100695.44;5010098;28;20276;-72
2023/08/15 08:09:59;;;;;;;11.45;6.70;;;;;;;23.96;100.00;100733.41;5020489;28;20547;-72
2023/08/15 08:12:24;;;;;;;11.77;6.00;;;;;;;23.94;100.00;100683.75;5019735;28;20025;-72
2023/08/15 08:14:50;;;;;;;12.93;6.55;;;;;;;24.07;100.00;100730.78;5021037;28;20058;-72
2023/08/15 08:17:15;;;;;;;15.83;6.33;;;;;;;23.80;100.00;100694.19;5018785;28;20403;-72
2023/08/15 08:19:40;;;;;;;10.13;6.40;;;;;;;23.68;100.00;100790.75;5026464;28;20737;-72
2023/08/15 08:22:06;;;;;;;8.57;6.07;;;;;;;23.50;100.00;100789.09;5017303;28;20029;-74
2023/08/15 08:24:31;;;;;;;12.57;5.83;;;;;;;23.58;100.00;100794.97;5021163;28;20040;-73
2023/08/15 08:26:57;;;;;;;9.00;5.63;;;;;;;23.69;100.00;100765.13;5014005;28;20048;-72
2023/08/15 08:29:25;;;;;;;10.70;5.75;;;;;;;23.65;100.00;100783.03;5020043;28;20041;-72
2023/08/15 08:31:51;;;;;;;12.70;6.45;;;;;;;23.12;100.00;100777.00;5000681;28;20033;-73
2023/08/15 08:34:16;;;;;;;15.87;6.50;;;;;;;23.08;100.00;100806.59;5018865;28;20041;-72
2023/08/15 08:36:42;;;;;;;13.70;7.13;;;;;;;22.87;100.00;100842.66;5019535;28;20164;-72
2023/08/15 08:39:07;;;;;;;12.85;6.10;;;;;;;22.95;100.00;100867.59;5015980;28;20038;-72
2023/08/15 08:41:36;;;;;;;12.38;7.05;;;;;;;22.83;100.00;100858.66;5018143;28;20148;-72
2023/08/15 08:44:02;;;;;;;11.75;6.80;;;;;;;22.96;100.00;100890.19;5017154;28;20626;-72
2023/08/15 08:46:29;;;;;;;9.25;7.05;;;;;;;22.81;100.00;100912.50;5019856;28;20079;-72
2023/08/15 08:49:00;;;;;;;13.40;6.85;;;;;;;22.84;100.00;100941.13;5017374;28;20045;-72
2023/08/15 08:51:27;;;;;;;11.88;7.05;;;;;;;22.77;100.00;100931.19;5000055;28;20467;-72
2023/08/15 08:53:53;;;;;;;11.00;7.35;;;;;;;22.78;100.00;100959.25;5015705;28;20029;-72
2023/08/15 08:56:22;;;;;;;10.38;7.82;;;;;;;22.57;100.00;101001.50;5014887;28;20038;-71
2023/08/15 08:58:56;;;;;;;17.58;8.90;;;;;;;22.33;100.00;101006.88;5019225;28;20067;-71
2023/08/15 09:01:22;;;;;;;10.57;8.52;;;;;;;22.20;100.00;101038.91;5015321;28;20037;-72
2023/08/15 09:03:47;;;;;;;13.40;8.60;;;;;;;22.24;100.00;101040.09;5015684;28;20032;-71
2023/08/15 09:06:13;;;;;;;12.07;9.53;;;;;;;22.13;100.00;101007.19;5017459;28;20038;-72
2023/08/15 09:08:38;;;;;;;15.27;10.02;;;;;;;22.01;100.00;101019.94;5009791;28;20291;-72
2023/08/15 09:11:06;;;;;;;16.35;10.30;;;;;;;22.03;100.00;101031.41;5014388;28;20042;-72
2023/08/15 09:13:31;;;;;;;16.17;10.73;;;;;;;21.85;100.00;101013.25;5015954;28;20531;-72
2023/08/15 09:15:59;;;;;;;14.33;11.47;;;;;;;21.84;100.00;101029.78;5018655;28;20033;-72
2023/08/15 09:18:26;;;;;;;16.30;11.25;;;;;;;21.67;100.00;101024.97;5020844;28;20021;-72
2023/08/15 09:20:52;;;;;;;16.20;10.77;;;;;;;21.66;100.00;101026.06;5016321;28;20133;-72
2023/08/15 09:23:17;;;;;;;15.10;11.93;;;;;;;21.66;100.00;101025.22;5021667;28;20108;-73
2023/08/15 09:25:43;;;;;;;16.60;11.70;;;;;;;21.64;100.00;101021.91;5007096;28;20510;-73
2023/08/15 09:28:08;;;;;;;19.73;12.13;;;;;;;21.55;100.00;101017.84;4996369;28;20461;-73
2023/08/15 09:30:34;;;;;;;19.75;11.57;;;;;;;21.60;100.00;101013.38;5016741;28;20033;-74
2023/08/15 09:33:04;;;;;;;15.17;11.90;;;;;;;21.65;100.00;101009.97;5017673;28;20076;-73
2023/08/15 09:35:32;;;;;;;22.02;11.27;;;;;;;21.58;100.00;100992.94;5016756;28;20033;-73
2023/08/15 09:37:57;;;;;;;22.30;12.85;;;;;;;21.60;100.00;100985.38;5000399;28;20022;-74
2023/08/15 09:40:25;;;;;;;19.17;12.03;;;;;;;21.64;100.00;100981.97;5017594;28;20034;-74
2023/08/15 09:42:52;;;;;;;21.08;11.45;;;;;;;21.54;100.00;100999.88;5014290;28;20271;-74
2023/08/15 09:45:18;;;;;;;16.27;12.57;;;;;;;21.53;100.00;101000.94;4997165;28;20390;-74
2023/08/15 09:47:44;;;;;;;14.55;12.60;;;;;;;21.62;100.00;101010.44;5019291;28;20098;-74
2023/08/15 09:50:12;;;;;;;17.83;11.48;;;;;;;21.79;100.00;100987.00;4995650;28;20436;-75
2023/08/15 09:52:40;;;;;;;14.60;11.48;;;;;;;21.92;100.00;100972.38;4990933;28;20487;-75
2023/08/15 09:55:12;;;;;;;16.23;13.27;;;;;;;21.82;100.00;100951.22;4995436;28;20041;-75
2023/08/15 09:57:39;;;;;;;14.95;12.02;;;;;;;21.61;100.00;100946.28;5014452;28;20029;-74
2023/08/15 10:00:11;;;;;;;17.83;11.75;;;;;;;21.91;100.00;100973.44;5011771;28;20030;-74
2023/08/15 10:02:43;;;;;;;18.55;11.68;;;;;;;21.97;100.00;100969.78;4998134;28;20500;-74
2023/08/15 10:05:11;;;;;;;18.30;12.18;;;;;;;22.19;100.00;100970.06;5015547;28;20188;-75
2023/08/15 10:07:38;;;;;;;19.83;11.93;;;;;;;22.34;100.00;100953.34;5010002;28;20543;-75
2023/08/15 10:10:04;;;;;;;19.73;12.07;;;;;;;22.38;100.00;100940.91;5018405;28;20504;-75
2023/08/15 10:12:31;;;;;;;17.50;12.90;;;;;;;22.24;100.00;100925.88;5019441;28;20063;-75
2023/08/15 10:14:58;;;;;;;17.27;12.77;;;;;;;22.27;100.00;100955.34;4998921;28;20041;-75
2023/08/15 10:17:28;;;;;;;19.15;13.02;;;;;;;22.47;100.00;100947.66;5016093;28;20376;-74
2023/08/15 10:19:54;;;;;;;14.90;10.20;;;;;;;23.33;100.00;100960.69;4995560;28;20100;-74
2023/08/15 10:22:23;;;;;;;15.75;10.20;;;;;;;24.52;100.00;100948.91;5004755;28;20022;-74
2023/08/15 10:24:48;;;;;;;17.08;11.07;;;;;;;24.32;100.00;100853.06;4995811;28;20044;-74
2023/08/15 10:27:14;;;;;;;16.77;10.68;;;;;;;24.94;100.00;100825.50;4995358;28;20017;-75
2023/08/15 10:29:58;;;;;;;12.97;11.33;;;;;;;24.76;100.00;100832.13;5006674;28;20407;-75
2023/08/15 10:32:25;;;;;;;20.60;11.73;;;;;;;23.82;100.00;100773.00;5016011;28;20284;-75
2023/08/15 10:35:01;;;;;;;20.23;12.43;;;;;;;23.66;100.00;100809.25;5014471;28;20028;-75
2023/08/15 10:37:28;;;;;;;21.65;13.02;;;;;;;23.46;100.00;100836.97;5016153;28;20041;-75
2023/08/15 10:40:08;;;;;;;13.45;10.57;;;;;;;23.80;100.00;100863.19;4996057;28;20026;-75
2023/08/15 10:43:02;;;;;;;16.92;12.00;;;;;;;23.64;100.00;100910.31;5020558;28;20475;-77
2023/08/15 10:45:31;;;;;;;25.23;11.27;;;;;;;24.68;100.00;100872.69;5000780;28;20037;-76
2023/08/15 10:47:57;;;;;;;18.00;13.20;;;;;;;24.37;100.00;100813.06;5020108;28;20042;-75
2023/08/15 10:50:23;;;;;;;17.25;12.07;;;;;;;24.49;100.00;100832.06;5014075;28;20503;-75
2023/08/15 10:53:05;;;;;;;15.13;12.02;;;;;;;24.31;100.00;100856.88;5019325;28;20067;-74
2023/08/15 10:55:34;;;;;;;16.90;12.52;;;;;;;23.80;100.00;100835.13;5001412;28;20094;-75
2023/08/15 10:58:03;;;;;;;15.63;11.90;;;;;;;23.77;100.00;100860.97;5014470;28;20026;-74
2023/08/15 11:00:32;;;;;;;18.75;11.23;;;;;;;23.76;100.00;100861.22;5017334;28;20432;-74
2023/08/15 11:02:58;;;;;;;18.05;10.75;;;;;;;23.89;100.00;100874.53;5014558;28;20032;-73
2023/08/15 11:05:24;;;;;;;13.43;10.07;;;;;;;24.00;100.00;100865.44;5015270;28;20034;-74
2023/08/15 11:07:49;;;;;;;14.73;10.00;;;;;;;24.05;100.00;100861.97;5013517;28;20022;-74